sensor_id;sensor_type;location;lat;lon;timestamp;P1;durP1;ratioP1;P2;durP2;ratioP2
7334;SDS011;3708;42.632;23.378;2023-02-01T00:01:54;6.97;;;4.80;;
7334;SDS011;3708;42.632;23.378;2023-02-01T00:04:21;6.93;;;4.70;;
7334;SDS011;3708;42.632;23.378;2023-02-01T00:06:48;9.87;;;5.43;;
7334;SDS011;3708;42.632;23.378;2023-02-01T00:09:16;5.33;;;4.10;;
7334;SDS011;3708;42.632;23.378;2023-02-01T00:11:43;7.67;;;4.23;;
7334;SDS011;3708;42.632;23.378;2023-02-01T00:14:10;6.47;;;4.70;;
7334;SDS011;3708;42.632;23.378;2023-02-01T00:16:38;5.43;;;4.57;;
7334;SDS011;3708;42.632;23.378;2023-02-01T00:19:06;6.67;;;4.60;;
7334;SDS011;3708;42.632;23.378;2023-02-01T00:21:34;7.10;;;4.57;;
7334;SDS011;3708;42.632;23.378;2023-02-01T00:24:01;6.43;;;3.67;;
7334;SDS011;3708;42.632;23.378;2023-02-01T00:26:32;4.07;;;3.20;;
7334;SDS011;3708;42.632;23.378;2023-02-01T00:28:59;4.30;;;3.90;;
7334;SDS011;3708;42.632;23.378;2023-02-01T00:31:27;4.83;;;4.00;;
7334;SDS011;3708;42.632;23.378;2023-02-01T00:33:53;6.83;;;5.00;;
7334;SDS011;3708;42.632;23.378;2023-02-01T00:36:20;5.27;;;4.77;;
7334;SDS011;3708;42.632;23.378;2023-02-01T00:38:47;6.67;;;4.23;;
7334;SDS011;3708;42.632;23.378;2023-02-01T00:41:15;6.77;;;4.57;;
7334;SDS011;3708;42.632;23.378;2023-02-01T00:43:45;4.87;;;4.37;;
7334;SDS011;3708;42.632;23.378;2023-02-01T00:46:12;5.33;;;4.47;;
7334;SDS011;3708;42.632;23.378;2023-02-01T00:48:41;4.47;;;4.07;;
7334;SDS011;3708;42.632;23.378;2023-02-01T00:51:09;7.47;;;4.40;;
7334;SDS011;3708;42.632;23.378;2023-02-01T00:53:37;4.97;;;3.83;;
7334;SDS011;3708;42.632;23.378;2023-02-01T00:56:05;4.30;;;3.67;;
7334;SDS011;3708;42.632;23.378;2023-02-01T00:58:32;3.97;;;3.60;;
7334;SDS011;3708;42.632;23.378;2023-02-01T01:01:05;4.87;;;3.57;;
7334;SDS011;3708;42.632;23.378;2023-02-01T01:03:34;4.97;;;3.50;;
7334;SDS011;3708;42.632;23.378;2023-02-01T01:06:04;4.97;;;3.70;;
7334;SDS011;3708;42.632;23.378;2023-02-01T01:08:32;6.70;;;3.77;;
7334;SDS011;3708;42.632;23.378;2023-02-01T01:11:03;5.37;;;3.80;;
7334;SDS011;3708;42.632;23.378;2023-02-01T01:13:30;5.00;;;3.60;;
7334;SDS011;3708;42.632;23.378;2023-02-01T01:15:59;7.53;;;3.97;;
7334;SDS011;3708;42.632;23.378;2023-02-01T01:18:29;5.50;;;3.50;;
7334;SDS011;3708;42.632;23.378;2023-02-01T01:20:57;5.57;;;3.70;;
7334;SDS011;3708;42.632;23.378;2023-02-01T01:23:24;5.10;;;4.10;;
7334;SDS011;3708;42.632;23.378;2023-02-01T01:25:51;4.40;;;3.70;;
7334;SDS011;3708;42.632;23.378;2023-02-01T01:28:18;3.43;;;3.13;;
7334;SDS011;3708;42.632;23.378;2023-02-01T01:30:45;3.97;;;3.10;;
7334;SDS011;3708;42.632;23.378;2023-02-01T01:33:16;4.30;;;3.13;;
7334;SDS011;3708;42.632;23.378;2023-02-01T01:35:44;5.33;;;3.63;;
7334;SDS011;3708;42.632;23.378;2023-02-01T01:38:11;4.37;;;3.53;;
7334;SDS011;3708;42.632;23.378;2023-02-01T01:40:38;4.07;;;3.20;;
7334;SDS011;3708;42.632;23.378;2023-02-01T01:43:09;3.23;;;2.93;;
7334;SDS011;3708;42.632;23.378;2023-02-01T01:45:39;5.77;;;2.97;;
7334;SDS011;3708;42.632;23.378;2023-02-01T01:48:07;4.87;;;3.93;;
7334;SDS011;3708;42.632;23.378;2023-02-01T01:50:38;5.30;;;3.20;;
7334;SDS011;3708;42.632;23.378;2023-02-01T01:53:11;3.67;;;2.97;;
7334;SDS011;3708;42.632;23.378;2023-02-01T01:55:40;3.23;;;2.93;;
7334;SDS011;3708;42.632;23.378;2023-02-01T01:58:12;8.20;;;3.73;;
7334;SDS011;3708;42.632;23.378;2023-02-01T02:00:41;3.93;;;3.27;;
7334;SDS011;3708;42.632;23.378;2023-02-01T02:03:11;3.53;;;3.20;;
7334;SDS011;3708;42.632;23.378;2023-02-01T02:05:43;3.50;;;3.17;;
7334;SDS011;3708;42.632;23.378;2023-02-01T02:08:13;3.63;;;3.10;;
7334;SDS011;3708;42.632;23.378;2023-02-01T02:10:40;3.50;;;3.20;;
7334;SDS011;3708;42.632;23.378;2023-02-01T02:13:25;5.10;;;3.43;;
7334;SDS011;3708;42.632;23.378;2023-02-01T02:15:58;5.43;;;3.40;;
7334;SDS011;3708;42.632;23.378;2023-02-01T02:18:33;3.67;;;3.20;;
7334;SDS011;3708;42.632;23.378;2023-02-01T02:21:14;3.80;;;3.23;;
7334;SDS011;3708;42.632;23.378;2023-02-01T02:26:54;3.47;;;3.17;;
7334;SDS011;3708;42.632;23.378;2023-02-01T02:32:34;3.23;;;2.93;;
7334;SDS011;3708;42.632;23.378;2023-02-01T02:35:28;4.43;;;2.67;;
7334;SDS011;3708;42.632;23.378;2023-02-01T02:38:02;4.30;;;2.80;;
7334;SDS011;3708;42.632;23.378;2023-02-01T02:40:42;4.23;;;3.10;;
7334;SDS011;3708;42.632;23.378;2023-02-01T02:43:17;3.57;;;2.47;;
7334;SDS011;3708;42.632;23.378;2023-02-01T02:46:06;4.73;;;3.07;;
7334;SDS011;3708;42.632;23.378;2023-02-01T02:49:01;3.83;;;2.50;;
7334;SDS011;3708;42.632;23.378;2023-02-01T02:51:40;4.37;;;3.13;;
7334;SDS011;3708;42.632;23.378;2023-02-01T02:54:28;4.33;;;2.90;;
7334;SDS011;3708;42.632;23.378;2023-02-01T02:57:16;4.03;;;2.67;;
7334;SDS011;3708;42.632;23.378;2023-02-01T03:00:04;3.60;;;2.90;;
7334;SDS011;3708;42.632;23.378;2023-02-01T03:02:53;2.87;;;2.60;;
7334;SDS011;3708;42.632;23.378;2023-02-01T03:05:41;8.83;;;2.80;;
7334;SDS011;3708;42.632;23.378;2023-02-01T03:08:11;7.70;;;2.80;;
7334;SDS011;3708;42.632;23.378;2023-02-01T03:10:51;5.00;;;3.03;;
7334;SDS011;3708;42.632;23.378;2023-02-01T03:13:28;4.63;;;2.83;;
7334;SDS011;3708;42.632;23.378;2023-02-01T03:16:03;5.93;;;3.00;;
7334;SDS011;3708;42.632;23.378;2023-02-01T03:18:36;5.47;;;2.30;;
7334;SDS011;3708;42.632;23.378;2023-02-01T03:21:07;3.87;;;2.20;;
7334;SDS011;3708;42.632;23.378;2023-02-01T03:23:38;4.53;;;2.43;;
7334;SDS011;3708;42.632;23.378;2023-02-01T03:26:07;2.93;;;2.47;;
7334;SDS011;3708;42.632;23.378;2023-02-01T03:28:37;4.53;;;2.33;;
7334;SDS011;3708;42.632;23.378;2023-02-01T03:31:09;3.73;;;2.50;;
7334;SDS011;3708;42.632;23.378;2023-02-01T03:33:36;3.10;;;2.80;;
7334;SDS011;3708;42.632;23.378;2023-02-01T03:36:05;3.83;;;2.53;;
7334;SDS011;3708;42.632;23.378;2023-02-01T03:38:43;2.43;;;2.23;;
7334;SDS011;3708;42.632;23.378;2023-02-01T03:41:18;3.10;;;2.43;;
7334;SDS011;3708;42.632;23.378;2023-02-01T03:43:52;2.53;;;2.23;;
7334;SDS011;3708;42.632;23.378;2023-02-01T03:46:33;2.60;;;2.40;;
7334;SDS011;3708;42.632;23.378;2023-02-01T03:49:05;3.10;;;2.40;;
7334;SDS011;3708;42.632;23.378;2023-02-01T03:51:35;4.37;;;2.20;;
7334;SDS011;3708;42.632;23.378;2023-02-01T03:54:05;2.23;;;2.03;;
7334;SDS011;3708;42.632;23.378;2023-02-01T03:56:35;3.70;;;2.63;;
7334;SDS011;3708;42.632;23.378;2023-02-01T03:59:08;3.57;;;2.40;;
7334;SDS011;3708;42.632;23.378;2023-02-01T04:01:42;5.07;;;2.57;;
7334;SDS011;3708;42.632;23.378;2023-02-01T04:04:09;2.50;;;2.30;;
7334;SDS011;3708;42.632;23.378;2023-02-01T04:06:45;3.73;;;2.30;;
7334;SDS011;3708;42.632;23.378;2023-02-01T04:09:13;2.43;;;2.20;;
7334;SDS011;3708;42.632;23.378;2023-02-01T04:11:40;2.37;;;2.03;;
7334;SDS011;3708;42.632;23.378;2023-02-01T04:14:06;5.33;;;3.27;;
7334;SDS011;3708;42.632;23.378;2023-02-01T04:16:34;4.10;;;2.80;;
7334;SDS011;3708;42.632;23.378;2023-02-01T04:19:01;3.10;;;2.40;;
7334;SDS011;3708;42.632;23.378;2023-02-01T04:21:28;3.60;;;2.53;;
7334;SDS011;3708;42.632;23.378;2023-02-01T04:23:55;2.73;;;2.10;;
7334;SDS011;3708;42.632;23.378;2023-02-01T04:26:23;3.47;;;2.47;;
7334;SDS011;3708;42.632;23.378;2023-02-01T04:28:50;3.20;;;2.80;;
7334;SDS011;3708;42.632;23.378;2023-02-01T04:31:17;2.90;;;2.50;;
7334;SDS011;3708;42.632;23.378;2023-02-01T04:33:50;4.60;;;3.23;;
7334;SDS011;3708;42.632;23.378;2023-02-01T04:36:17;3.53;;;2.57;;
7334;SDS011;3708;42.632;23.378;2023-02-01T04:38:46;6.73;;;3.33;;
7334;SDS011;3708;42.632;23.378;2023-02-01T04:41:13;3.43;;;3.00;;
7334;SDS011;3708;42.632;23.378;2023-02-01T04:43:45;4.23;;;3.00;;
7334;SDS011;3708;42.632;23.378;2023-02-01T04:46:11;5.07;;;2.90;;
7334;SDS011;3708;42.632;23.378;2023-02-01T04:48:38;4.53;;;3.33;;
7334;SDS011;3708;42.632;23.378;2023-02-01T04:51:05;5.73;;;3.13;;
7334;SDS011;3708;42.632;23.378;2023-02-01T04:53:32;4.67;;;3.10;;
7334;SDS011;3708;42.632;23.378;2023-02-01T04:55:59;5.30;;;3.37;;
7334;SDS011;3708;42.632;23.378;2023-02-01T04:58:26;7.57;;;3.40;;
7334;SDS011;3708;42.632;23.378;2023-02-01T05:00:54;4.60;;;3.40;;
7334;SDS011;3708;42.632;23.378;2023-02-01T05:03:21;6.57;;;3.77;;
7334;SDS011;3708;42.632;23.378;2023-02-01T05:05:48;5.33;;;3.10;;
7334;SDS011;3708;42.632;23.378;2023-02-01T05:08:15;5.00;;;3.00;;
7334;SDS011;3708;42.632;23.378;2023-02-01T05:10:42;7.00;;;3.20;;
7334;SDS011;3708;42.632;23.378;2023-02-01T05:13:13;4.40;;;3.73;;
7334;SDS011;3708;42.632;23.378;2023-02-01T05:16:05;6.00;;;3.53;;
7334;SDS011;3708;42.632;23.378;2023-02-01T05:18:33;4.90;;;3.43;;
7334;SDS011;3708;42.632;23.378;2023-02-01T05:20:59;7.40;;;3.33;;
7334;SDS011;3708;42.632;23.378;2023-02-01T05:23:26;5.43;;;3.17;;
7334;SDS011;3708;42.632;23.378;2023-02-01T05:25:57;3.33;;;2.67;;
7334;SDS011;3708;42.632;23.378;2023-02-01T05:28:26;6.00;;;3.40;;
7334;SDS011;3708;42.632;23.378;2023-02-01T05:30:53;5.40;;;3.70;;
7334;SDS011;3708;42.632;23.378;2023-02-01T05:33:21;4.40;;;3.53;;
7334;SDS011;3708;42.632;23.378;2023-02-01T05:35:48;4.27;;;3.40;;
7334;SDS011;3708;42.632;23.378;2023-02-01T05:38:15;4.67;;;4.07;;
7334;SDS011;3708;42.632;23.378;2023-02-01T05:40:42;5.67;;;3.93;;
7334;SDS011;3708;42.632;23.378;2023-02-01T05:43:14;7.17;;;4.10;;
7334;SDS011;3708;42.632;23.378;2023-02-01T05:45:41;5.57;;;3.40;;
7334;SDS011;3708;42.632;23.378;2023-02-01T05:48:08;7.50;;;3.80;;
7334;SDS011;3708;42.632;23.378;2023-02-01T05:50:36;9.40;;;4.47;;
7334;SDS011;3708;42.632;23.378;2023-02-01T05:53:03;7.47;;;4.63;;
7334;SDS011;3708;42.632;23.378;2023-02-01T05:55:30;4.83;;;4.03;;
7334;SDS011;3708;42.632;23.378;2023-02-01T05:57:57;3.40;;;2.90;;
7334;SDS011;3708;42.632;23.378;2023-02-01T06:00:24;7.13;;;3.97;;
7334;SDS011;3708;42.632;23.378;2023-02-01T06:02:51;5.83;;;3.80;;
7334;SDS011;3708;42.632;23.378;2023-02-01T06:05:18;6.07;;;3.37;;
7334;SDS011;3708;42.632;23.378;2023-02-01T06:07:46;5.07;;;3.63;;
7334;SDS011;3708;42.632;23.378;2023-02-01T06:10:15;6.53;;;3.23;;
7334;SDS011;3708;42.632;23.378;2023-02-01T06:12:42;6.37;;;2.87;;
7334;SDS011;3708;42.632;23.378;2023-02-01T06:15:09;5.37;;;2.97;;
7334;SDS011;3708;42.632;23.378;2023-02-01T06:17:37;7.57;;;3.07;;
7334;SDS011;3708;42.632;23.378;2023-02-01T06:20:05;7.27;;;3.57;;
7334;SDS011;3708;42.632;23.378;2023-02-01T06:22:32;4.37;;;3.70;;
7334;SDS011;3708;42.632;23.378;2023-02-01T06:25:02;9.87;;;3.10;;
7334;SDS011;3708;42.632;23.378;2023-02-01T06:27:29;7.30;;;3.20;;
7334;SDS011;3708;42.632;23.378;2023-02-01T06:29:56;4.80;;;2.87;;
7334;SDS011;3708;42.632;23.378;2023-02-01T06:32:23;3.50;;;2.70;;
7334;SDS011;3708;42.632;23.378;2023-02-01T06:34:50;5.73;;;3.00;;
7334;SDS011;3708;42.632;23.378;2023-02-01T06:37:18;6.47;;;3.53;;
7334;SDS011;3708;42.632;23.378;2023-02-01T06:39:45;4.83;;;3.20;;
7334;SDS011;3708;42.632;23.378;2023-02-01T06:42:13;9.20;;;3.17;;
7334;SDS011;3708;42.632;23.378;2023-02-01T06:44:40;4.63;;;2.80;;
7334;SDS011;3708;42.632;23.378;2023-02-01T06:47:07;6.43;;;2.40;;
7334;SDS011;3708;42.632;23.378;2023-02-01T06:49:34;2.43;;;2.13;;
7334;SDS011;3708;42.632;23.378;2023-02-01T06:52:00;12.67;;;3.07;;
7334;SDS011;3708;42.632;23.378;2023-02-01T06:54:28;7.37;;;2.80;;
7334;SDS011;3708;42.632;23.378;2023-02-01T06:56:57;3.27;;;2.47;;
7334;SDS011;3708;42.632;23.378;2023-02-01T06:59:25;3.90;;;2.57;;
7334;SDS011;3708;42.632;23.378;2023-02-01T07:01:52;6.60;;;3.60;;
7334;SDS011;3708;42.632;23.378;2023-02-01T07:04:19;5.67;;;2.50;;
7334;SDS011;3708;42.632;23.378;2023-02-01T07:06:46;6.60;;;2.60;;
7334;SDS011;3708;42.632;23.378;2023-02-01T07:09:12;7.17;;;3.20;;
7334;SDS011;3708;42.632;23.378;2023-02-01T07:11:39;5.03;;;2.67;;
7334;SDS011;3708;42.632;23.378;2023-02-01T07:14:08;3.90;;;2.53;;
7334;SDS011;3708;42.632;23.378;2023-02-01T07:16:36;4.90;;;2.33;;
7334;SDS011;3708;42.632;23.378;2023-02-01T07:19:04;6.30;;;2.50;;
7334;SDS011;3708;42.632;23.378;2023-02-01T07:21:30;6.40;;;2.83;;
7334;SDS011;3708;42.632;23.378;2023-02-01T07:23:58;3.77;;;3.00;;
7334;SDS011;3708;42.632;23.378;2023-02-01T07:26:25;6.87;;;4.10;;
7334;SDS011;3708;42.632;23.378;2023-02-01T07:28:52;5.07;;;3.20;;
7334;SDS011;3708;42.632;23.378;2023-02-01T07:31:19;4.57;;;4.00;;
7334;SDS011;3708;42.632;23.378;2023-02-01T07:33:48;3.33;;;2.40;;
7334;SDS011;3708;42.632;23.378;2023-02-01T07:36:18;6.53;;;2.63;;
7334;SDS011;3708;42.632;23.378;2023-02-01T07:38:45;3.33;;;2.70;;
7334;SDS011;3708;42.632;23.378;2023-02-01T07:41:13;5.63;;;2.40;;
7334;SDS011;3708;42.632;23.378;2023-02-01T07:43:40;4.73;;;2.67;;
7334;SDS011;3708;42.632;23.378;2023-02-01T07:46:07;5.17;;;2.50;;
7334;SDS011;3708;42.632;23.378;2023-02-01T07:48:34;6.40;;;2.53;;
7334;SDS011;3708;42.632;23.378;2023-02-01T07:51:02;3.83;;;2.67;;
7334;SDS011;3708;42.632;23.378;2023-02-01T07:53:35;3.67;;;2.53;;
7334;SDS011;3708;42.632;23.378;2023-02-01T07:56:03;4.43;;;2.17;;
7334;SDS011;3708;42.632;23.378;2023-02-01T07:58:33;8.10;;;3.27;;
7334;SDS011;3708;42.632;23.378;2023-02-01T08:01:04;3.43;;;2.80;;
7334;SDS011;3708;42.632;23.378;2023-02-01T08:03:49;5.07;;;2.40;;
7334;SDS011;3708;42.632;23.378;2023-02-01T08:06:20;4.23;;;2.67;;
7334;SDS011;3708;42.632;23.378;2023-02-01T08:08:47;6.07;;;2.50;;
7334;SDS011;3708;42.632;23.378;2023-02-01T08:11:15;5.30;;;2.73;;
7334;SDS011;3708;42.632;23.378;2023-02-01T08:13:42;2.70;;;2.00;;
7334;SDS011;3708;42.632;23.378;2023-02-01T08:16:10;3.13;;;2.13;;
7334;SDS011;3708;42.632;23.378;2023-02-01T08:18:38;2.77;;;2.13;;
7334;SDS011;3708;42.632;23.378;2023-02-01T08:21:07;3.33;;;2.60;;
7334;SDS011;3708;42.632;23.378;2023-02-01T08:23:37;6.67;;;2.80;;
7334;SDS011;3708;42.632;23.378;2023-02-01T08:26:09;6.30;;;2.47;;
7334;SDS011;3708;42.632;23.378;2023-02-01T08:28:40;4.77;;;2.40;;
7334;SDS011;3708;42.632;23.378;2023-02-01T08:31:08;5.27;;;2.20;;
7334;SDS011;3708;42.632;23.378;2023-02-01T08:33:36;7.20;;;2.63;;
7334;SDS011;3708;42.632;23.378;2023-02-01T08:36:05;3.07;;;1.80;;
7334;SDS011;3708;42.632;23.378;2023-02-01T08:38:34;4.53;;;2.00;;
7334;SDS011;3708;42.632;23.378;2023-02-01T08:41:05;4.93;;;2.30;;
7334;SDS011;3708;42.632;23.378;2023-02-01T08:43:33;2.67;;;2.27;;
7334;SDS011;3708;42.632;23.378;2023-02-01T08:46:00;2.53;;;1.87;;
7334;SDS011;3708;42.632;23.378;2023-02-01T08:48:27;5.23;;;2.80;;
7334;SDS011;3708;42.632;23.378;2023-02-01T08:50:53;4.97;;;1.93;;
7334;SDS011;3708;42.632;23.378;2023-02-01T08:53:20;4.10;;;2.20;;
7334;SDS011;3708;42.632;23.378;2023-02-01T08:55:47;7.17;;;2.30;;
7334;SDS011;3708;42.632;23.378;2023-02-01T08:58:15;4.40;;;2.33;;
7334;SDS011;3708;42.632;23.378;2023-02-01T09:00:43;6.77;;;2.67;;
7334;SDS011;3708;42.632;23.378;2023-02-01T09:03:11;5.70;;;2.40;;
7334;SDS011;3708;42.632;23.378;2023-02-01T09:05:38;7.17;;;2.30;;
7334;SDS011;3708;42.632;23.378;2023-02-01T09:08:05;6.13;;;2.50;;
7334;SDS011;3708;42.632;23.378;2023-02-01T09:10:33;4.23;;;2.27;;
7334;SDS011;3708;42.632;23.378;2023-02-01T09:13:00;2.90;;;1.90;;
7334;SDS011;3708;42.632;23.378;2023-02-01T09:15:28;4.70;;;2.20;;
7334;SDS011;3708;42.632;23.378;2023-02-01T09:17:55;2.60;;;2.10;;
7334;SDS011;3708;42.632;23.378;2023-02-01T09:20:22;2.53;;;2.10;;
7334;SDS011;3708;42.632;23.378;2023-02-01T09:22:49;3.37;;;2.30;;
7334;SDS011;3708;42.632;23.378;2023-02-01T09:25:16;4.67;;;2.03;;
7334;SDS011;3708;42.632;23.378;2023-02-01T09:27:43;2.90;;;2.20;;
7334;SDS011;3708;42.632;23.378;2023-02-01T09:30:10;6.27;;;2.67;;
7334;SDS011;3708;42.632;23.378;2023-02-01T09:32:42;4.40;;;2.10;;
7334;SDS011;3708;42.632;23.378;2023-02-01T09:35:09;10.30;;;2.00;;
7334;SDS011;3708;42.632;23.378;2023-02-01T09:37:36;9.73;;;2.90;;
7334;SDS011;3708;42.632;23.378;2023-02-01T09:40:04;7.53;;;2.47;;
7334;SDS011;3708;42.632;23.378;2023-02-01T09:42:40;2.90;;;1.90;;
7334;SDS011;3708;42.632;23.378;2023-02-01T09:45:24;3.70;;;2.00;;
7334;SDS011;3708;42.632;23.378;2023-02-01T09:48:02;4.90;;;2.57;;
7334;SDS011;3708;42.632;23.378;2023-02-01T09:50:36;4.90;;;2.03;;
7334;SDS011;3708;42.632;23.378;2023-02-01T09:53:06;4.40;;;2.80;;
7334;SDS011;3708;42.632;23.378;2023-02-01T09:55:41;5.33;;;2.43;;
7334;SDS011;3708;42.632;23.378;2023-02-01T09:58:12;3.13;;;2.30;;
7334;SDS011;3708;42.632;23.378;2023-02-01T10:00:44;3.00;;;2.17;;
7334;SDS011;3708;42.632;23.378;2023-02-01T10:03:17;3.53;;;2.40;;
7334;SDS011;3708;42.632;23.378;2023-02-01T10:05:53;3.40;;;2.53;;
7334;SDS011;3708;42.632;23.378;2023-02-01T10:08:29;3.80;;;2.50;;
7334;SDS011;3708;42.632;23.378;2023-02-01T10:11:04;5.53;;;2.10;;
7334;SDS011;3708;42.632;23.378;2023-02-01T10:13:43;3.60;;;2.20;;
7334;SDS011;3708;42.632;23.378;2023-02-01T10:16:19;6.00;;;2.30;;
7334;SDS011;3708;42.632;23.378;2023-02-01T10:19:00;5.77;;;2.73;;
7334;SDS011;3708;42.632;23.378;2023-02-01T10:21:58;4.50;;;2.07;;
7334;SDS011;3708;42.632;23.378;2023-02-01T10:24:29;4.57;;;2.30;;
7334;SDS011;3708;42.632;23.378;2023-02-01T10:27:16;4.60;;;2.10;;
7334;SDS011;3708;42.632;23.378;2023-02-01T10:29:47;5.33;;;2.13;;
7334;SDS011;3708;42.632;23.378;2023-02-01T10:32:20;6.57;;;2.40;;
7334;SDS011;3708;42.632;23.378;2023-02-01T10:34:51;5.63;;;2.10;;
7334;SDS011;3708;42.632;23.378;2023-02-01T10:37:27;10.77;;;3.17;;
7334;SDS011;3708;42.632;23.378;2023-02-01T10:39:56;5.30;;;2.30;;
7334;SDS011;3708;42.632;23.378;2023-02-01T10:42:26;2.23;;;1.80;;
7334;SDS011;3708;42.632;23.378;2023-02-01T10:44:55;5.00;;;2.50;;
7334;SDS011;3708;42.632;23.378;2023-02-01T10:47:26;2.00;;;1.70;;
7334;SDS011;3708;42.632;23.378;2023-02-01T10:49:57;5.40;;;2.03;;
7334;SDS011;3708;42.632;23.378;2023-02-01T10:52:35;2.43;;;1.87;;
7334;SDS011;3708;42.632;23.378;2023-02-01T10:55:27;2.60;;;2.30;;
7334;SDS011;3708;42.632;23.378;2023-02-01T10:57:58;3.10;;;1.97;;
7334;SDS011;3708;42.632;23.378;2023-02-01T11:00:26;3.10;;;2.30;;
7334;SDS011;3708;42.632;23.378;2023-02-01T11:02:54;3.43;;;2.53;;
7334;SDS011;3708;42.632;23.378;2023-02-01T11:05:22;4.57;;;2.50;;
7334;SDS011;3708;42.632;23.378;2023-02-01T11:07:53;3.07;;;2.30;;
7334;SDS011;3708;42.632;23.378;2023-02-01T11:10:35;3.17;;;2.30;;
7334;SDS011;3708;42.632;23.378;2023-02-01T11:13:03;3.97;;;2.40;;
7334;SDS011;3708;42.632;23.378;2023-02-01T11:15:31;5.23;;;2.00;;
7334;SDS011;3708;42.632;23.378;2023-02-01T11:18:07;2.17;;;1.97;;
7334;SDS011;3708;42.632;23.378;2023-02-01T11:20:43;2.53;;;2.00;;
7334;SDS011;3708;42.632;23.378;2023-02-01T11:23:17;3.97;;;1.80;;
7334;SDS011;3708;42.632;23.378;2023-02-01T11:25:48;4.50;;;2.30;;
7334;SDS011;3708;42.632;23.378;2023-02-01T11:28:17;2.43;;;1.90;;
7334;SDS011;3708;42.632;23.378;2023-02-01T11:30:46;3.00;;;2.03;;
7334;SDS011;3708;42.632;23.378;2023-02-01T11:33:15;3.23;;;2.07;;
7334;SDS011;3708;42.632;23.378;2023-02-01T11:35:45;1.97;;;1.70;;
7334;SDS011;3708;42.632;23.378;2023-02-01T11:38:19;3.77;;;1.67;;
7334;SDS011;3708;42.632;23.378;2023-02-01T11:40:48;3.07;;;1.90;;
7334;SDS011;3708;42.632;23.378;2023-02-01T11:43:17;2.10;;;1.90;;
7334;SDS011;3708;42.632;23.378;2023-02-01T11:45:53;5.20;;;1.83;;
7334;SDS011;3708;42.632;23.378;2023-02-01T11:48:21;3.30;;;1.70;;
7334;SDS011;3708;42.632;23.378;2023-02-01T11:50:59;2.40;;;1.90;;
7334;SDS011;3708;42.632;23.378;2023-02-01T11:53:42;2.63;;;1.87;;
7334;SDS011;3708;42.632;23.378;2023-02-01T11:56:25;3.20;;;1.73;;
7334;SDS011;3708;42.632;23.378;2023-02-01T11:59:16;4.30;;;1.60;;
7334;SDS011;3708;42.632;23.378;2023-02-01T12:05:08;1.97;;;1.53;;
7334;SDS011;3708;42.632;23.378;2023-02-01T12:07:59;1.87;;;1.53;;
7334;SDS011;3708;42.632;23.378;2023-02-01T12:10:38;5.30;;;2.00;;
7334;SDS011;3708;42.632;23.378;2023-02-01T12:13:19;3.33;;;1.80;;
7334;SDS011;3708;42.632;23.378;2023-02-01T12:15:59;4.50;;;2.17;;
7334;SDS011;3708;42.632;23.378;2023-02-01T12:21:45;3.17;;;1.93;;
7334;SDS011;3708;42.632;23.378;2023-02-01T12:24:29;5.50;;;1.90;;
7334;SDS011;3708;42.632;23.378;2023-02-01T12:30:13;2.83;;;1.90;;
7334;SDS011;3708;42.632;23.378;2023-02-01T12:32:57;2.07;;;1.60;;
7334;SDS011;3708;42.632;23.378;2023-02-01T12:35:39;2.10;;;1.73;;
7334;SDS011;3708;42.632;23.378;2023-02-01T12:38:30;4.53;;;1.90;;
7334;SDS011;3708;42.632;23.378;2023-02-01T12:41:10;3.00;;;1.93;;
7334;SDS011;3708;42.632;23.378;2023-02-01T12:43:51;3.33;;;2.30;;
7334;SDS011;3708;42.632;23.378;2023-02-01T12:46:23;1.63;;;1.53;;
7334;SDS011;3708;42.632;23.378;2023-02-01T12:48:58;3.00;;;1.60;;
7334;SDS011;3708;42.632;23.378;2023-02-01T12:51:29;3.77;;;2.17;;
7334;SDS011;3708;42.632;23.378;2023-02-01T12:54:01;5.67;;;1.87;;
7334;SDS011;3708;42.632;23.378;2023-02-01T12:56:38;1.80;;;1.60;;
7334;SDS011;3708;42.632;23.378;2023-02-01T12:59:12;2.00;;;1.77;;
7334;SDS011;3708;42.632;23.378;2023-02-01T13:01:49;2.77;;;1.70;;
7334;SDS011;3708;42.632;23.378;2023-02-01T13:04:25;1.80;;;1.57;;
7334;SDS011;3708;42.632;23.378;2023-02-01T13:06:57;3.73;;;1.90;;
7334;SDS011;3708;42.632;23.378;2023-02-01T13:09:32;3.50;;;2.00;;
7334;SDS011;3708;42.632;23.378;2023-02-01T13:12:10;4.97;;;1.40;;
7334;SDS011;3708;42.632;23.378;2023-02-01T13:14:41;3.50;;;1.90;;
7334;SDS011;3708;42.632;23.378;2023-02-01T13:17:14;4.63;;;1.50;;
7334;SDS011;3708;42.632;23.378;2023-02-01T13:19:44;2.13;;;1.70;;
7334;SDS011;3708;42.632;23.378;2023-02-01T13:22:17;3.00;;;1.80;;
7334;SDS011;3708;42.632;23.378;2023-02-01T13:24:48;3.87;;;2.13;;
7334;SDS011;3708;42.632;23.378;2023-02-01T13:27:20;3.80;;;1.97;;
7334;SDS011;3708;42.632;23.378;2023-02-01T13:29:50;2.40;;;1.70;;
7334;SDS011;3708;42.632;23.378;2023-02-01T13:32:32;2.30;;;1.83;;
7334;SDS011;3708;42.632;23.378;2023-02-01T13:35:26;4.50;;;2.07;;
7334;SDS011;3708;42.632;23.378;2023-02-01T13:41:19;2.23;;;1.77;;
7334;SDS011;3708;42.632;23.378;2023-02-01T13:43:55;2.53;;;1.83;;
7334;SDS011;3708;42.632;23.378;2023-02-01T13:46:25;1.77;;;1.50;;
7334;SDS011;3708;42.632;23.378;2023-02-01T13:48:54;5.77;;;2.00;;
7334;SDS011;3708;42.632;23.378;2023-02-01T13:51:35;2.43;;;1.60;;
7334;SDS011;3708;42.632;23.378;2023-02-01T13:54:22;5.97;;;2.17;;
7334;SDS011;3708;42.632;23.378;2023-02-01T13:56:56;1.60;;;1.43;;
7334;SDS011;3708;42.632;23.378;2023-02-01T14:06:00;3.10;;;1.80;;
7334;SDS011;3708;42.632;23.378;2023-02-01T14:08:37;4.50;;;1.97;;
7334;SDS011;3708;42.632;23.378;2023-02-01T14:11:31;5.23;;;2.23;;
7334;SDS011;3708;42.632;23.378;2023-02-01T14:23:15;10.20;;;1.80;;
7334;SDS011;3708;42.632;23.378;2023-02-01T14:25:44;2.30;;;2.10;;
7334;SDS011;3708;42.632;23.378;2023-02-01T14:28:21;4.03;;;2.10;;
7334;SDS011;3708;42.632;23.378;2023-02-01T14:30:53;4.63;;;2.50;;
7334;SDS011;3708;42.632;23.378;2023-02-01T14:33:24;3.40;;;2.27;;
7334;SDS011;3708;42.632;23.378;2023-02-01T14:38:37;2.70;;;1.93;;
7334;SDS011;3708;42.632;23.378;2023-02-01T14:41:25;2.87;;;1.80;;
7334;SDS011;3708;42.632;23.378;2023-02-01T14:47:09;2.80;;;1.90;;
7334;SDS011;3708;42.632;23.378;2023-02-01T14:52:51;3.27;;;2.20;;
7334;SDS011;3708;42.632;23.378;2023-02-01T14:55:39;2.13;;;1.73;;
7334;SDS011;3708;42.632;23.378;2023-02-01T14:58:14;3.00;;;1.93;;
7334;SDS011;3708;42.632;23.378;2023-02-01T15:00:49;5.87;;;2.13;;
7334;SDS011;3708;42.632;23.378;2023-02-01T15:06:27;2.90;;;1.97;;
7334;SDS011;3708;42.632;23.378;2023-02-01T15:08:58;3.47;;;1.87;;
7334;SDS011;3708;42.632;23.378;2023-02-01T15:11:28;1.90;;;1.50;;
7334;SDS011;3708;42.632;23.378;2023-02-01T15:13:55;2.40;;;2.07;;
7334;SDS011;3708;42.632;23.378;2023-02-01T15:16:22;2.63;;;2.03;;
7334;SDS011;3708;42.632;23.378;2023-02-01T15:18:50;3.33;;;2.50;;
7334;SDS011;3708;42.632;23.378;2023-02-01T15:21:33;4.20;;;2.77;;
7334;SDS011;3708;42.632;23.378;2023-02-01T15:24:10;3.20;;;2.20;;
7334;SDS011;3708;42.632;23.378;2023-02-01T15:26:37;4.53;;;2.17;;
7334;SDS011;3708;42.632;23.378;2023-02-01T15:29:04;3.73;;;1.93;;
7334;SDS011;3708;42.632;23.378;2023-02-01T15:31:31;2.83;;;2.00;;
7334;SDS011;3708;42.632;23.378;2023-02-01T15:34:00;3.77;;;2.37;;
7334;SDS011;3708;42.632;23.378;2023-02-01T15:36:27;3.20;;;2.10;;
7334;SDS011;3708;42.632;23.378;2023-02-01T15:41:51;4.23;;;1.93;;
7334;SDS011;3708;42.632;23.378;2023-02-01T15:44:23;3.83;;;1.90;;
7334;SDS011;3708;42.632;23.378;2023-02-01T15:46:58;2.57;;;2.17;;
7334;SDS011;3708;42.632;23.378;2023-02-01T15:49:27;5.77;;;2.57;;
7334;SDS011;3708;42.632;23.378;2023-02-01T15:51:56;3.60;;;2.30;;
7334;SDS011;3708;42.632;23.378;2023-02-01T15:54:27;6.27;;;2.33;;
7334;SDS011;3708;42.632;23.378;2023-02-01T15:56:58;6.60;;;2.30;;
7334;SDS011;3708;42.632;23.378;2023-02-01T15:59:31;4.90;;;2.60;;
7334;SDS011;3708;42.632;23.378;2023-02-01T16:02:03;4.47;;;2.50;;
7334;SDS011;3708;42.632;23.378;2023-02-01T16:04:30;3.53;;;2.17;;
7334;SDS011;3708;42.632;23.378;2023-02-01T16:06:58;2.83;;;2.03;;
7334;SDS011;3708;42.632;23.378;2023-02-01T16:09:37;4.23;;;2.20;;
7334;SDS011;3708;42.632;23.378;2023-02-01T16:12:20;5.43;;;2.47;;
7334;SDS011;3708;42.632;23.378;2023-02-01T16:14:54;3.83;;;2.30;;
7334;SDS011;3708;42.632;23.378;2023-02-01T16:17:21;4.07;;;2.03;;